| Back to River Map | <<< Previous Forecast Point | | | Next Forecast Point >>> | Printer Version | Graph Version |  |
|
SACRAMENTO RIVER - COLUSA BRIDGE (CLUC1)
| Latitude: 39.21º N | Longitude: 122.00º W | Elevation: 70 Feet | | Forecast Type: Official Location |
| Location: Colusa County in California | Bulletin Group: Upper Sacramento | River Group: Upper Sacramento |
| Issuance Time: | Sep 05 2026 at 6:43 AM PDT | Next Issuance: | Sep 06 2026 at 9:00 AM PDT
| |
| Action: 63.0 Feet | Minor Flood: 70.0 Feet | Moderate Flood: 72.0 Feet | Major Flood: 73.0 Feet |
# Tabular Observed and Forecast Hydrograph Information
#
# Location: Sacramento River - Colusa Bridge (CLUC1)
#
# File Generation Time: 09/05/2026 at 06:44 AM PDT
# Data Interval: 1 Hour
#
# Most Recent Date & Time of Maximum Observed: 08/31/2026 at 06:00 AM PDT
# Maximum Observed Stage: 42.37 Feet
# Maximum Observed Flow: 6054 cfs
#
# Earliest Date & Time of Maximum Forecast: 09/05/2026 at 08:00 PM PDT
# Maximum Forecast Stage: 42.35 Feet
# Maximum Forecast Flow: 6025 cfs
#
# OBSERVED
#
# Date & Time (Local) Stage (Feet) Flow (cfs) Trend Observed Status
# ---------------------------------------------------------------------------------
08/31/2026 06 AM PDT 42.37 6054 Normal
08/31/2026 07 AM PDT 42.36 6039 - Normal
08/31/2026 08 AM PDT 42.36 6039 0 Normal
08/31/2026 09 AM PDT 42.36 6039 0 Normal
08/31/2026 10 AM PDT 42.34 6011 - Normal
08/31/2026 11 AM PDT 42.34 6011 0 Normal
08/31/2026 12 PM PDT 42.33 5996 - Normal
08/31/2026 01 PM PDT 42.30 5954 - Normal
08/31/2026 02 PM PDT 42.29 5940 - Normal
08/31/2026 03 PM PDT 42.26 5897 - Normal
08/31/2026 04 PM PDT 42.24 5869 - Normal
08/31/2026 05 PM PDT 42.24 5869 0 Normal
08/31/2026 06 PM PDT 42.23 5855 - Normal
08/31/2026 07 PM PDT 42.23 5855 0 Normal
08/31/2026 08 PM PDT 42.22 5841 - Normal
08/31/2026 09 PM PDT 42.20 5813 - Normal
08/31/2026 10 PM PDT 42.19 5799 - Normal
08/31/2026 11 PM PDT 42.17 5772 - Normal
09/01/2026 12 AM PDT 42.14 5730 - Normal
09/01/2026 01 AM PDT 42.14 5730 0 Normal
09/01/2026 02 AM PDT 42.15 5744 + Normal
09/01/2026 03 AM PDT 42.15 5744 0 Normal
09/01/2026 04 AM PDT 42.15 5744 0 Normal
09/01/2026 05 AM PDT 42.14 5730 - Normal
09/01/2026 06 AM PDT 42.14 5730 0 Normal
09/01/2026 07 AM PDT 42.12 5703 - Normal
09/01/2026 08 AM PDT 42.13 5717 + Normal
09/01/2026 09 AM PDT 42.12 5703 - Normal
09/01/2026 10 AM PDT 42.11 5689 - Normal
09/01/2026 11 AM PDT 42.10 5676 - Normal
09/01/2026 12 PM PDT 42.09 5662 - Normal
09/01/2026 01 PM PDT 42.07 5635 - Normal
09/01/2026 02 PM PDT 42.06 5621 - Normal
09/01/2026 03 PM PDT 42.03 5581 - Normal
09/01/2026 04 PM PDT 42.03 5581 0 Normal
09/01/2026 05 PM PDT 42.01 5554 - Normal
09/01/2026 06 PM PDT 42.00 5541 - Normal
09/01/2026 07 PM PDT 41.98 5521 - Normal
09/01/2026 08 PM PDT 41.97 5511 - Normal
09/01/2026 09 PM PDT 41.96 5501 - Normal
09/01/2026 10 PM PDT 41.96 5501 0 Normal
09/01/2026 11 PM PDT 41.94 5482 - Normal
09/02/2026 12 AM PDT 41.94 5482 0 Normal
09/02/2026 01 AM PDT 41.94 5482 0 Normal
09/02/2026 02 AM PDT 41.93 5472 - Normal
09/02/2026 03 AM PDT 41.92 5462 - Normal
09/02/2026 04 AM PDT 41.91 5452 - Normal
09/02/2026 05 AM PDT 41.90 5442 - Normal
09/02/2026 06 AM PDT 41.91 5452 + Normal
09/02/2026 07 AM PDT 41.90 5442 - Normal
09/02/2026 08 AM PDT 41.91 5452 + Normal
09/02/2026 09 AM PDT 41.90 5442 - Normal
09/02/2026 10 AM PDT 41.90 5442 0 Normal
09/02/2026 11 AM PDT 41.90 5442 0 Normal
09/02/2026 12 PM PDT 41.91 5452 + Normal
09/02/2026 01 PM PDT 41.92 5462 + Normal
09/02/2026 02 PM PDT 41.91 5452 - Normal
09/02/2026 03 PM PDT 41.91 5452 0 Normal
09/02/2026 04 PM PDT 41.92 5462 + Normal
09/02/2026 05 PM PDT 41.94 5482 + Normal
09/02/2026 06 PM PDT 41.93 5472 - Normal
09/02/2026 07 PM PDT 41.95 5492 + Normal
09/02/2026 08 PM PDT 41.95 5492 0 Normal
09/02/2026 09 PM PDT 41.97 5511 + Normal
09/02/2026 10 PM PDT 41.97 5511 0 Normal
09/02/2026 11 PM PDT 41.96 5501 - Normal
09/03/2026 12 AM PDT 41.96 5501 0 Normal
09/03/2026 01 AM PDT 41.96 5501 0 Normal
09/03/2026 02 AM PDT 41.97 5511 + Normal
09/03/2026 03 AM PDT 41.98 5521 + Normal
09/03/2026 04 AM PDT 42.00 5541 + Normal
09/03/2026 05 AM PDT 41.99 5531 - Normal
09/03/2026 06 AM PDT 41.99 5531 0 Normal
09/03/2026 07 AM PDT 42.00 5541 + Normal
09/03/2026 08 AM PDT 42.01 5554 + Normal
09/03/2026 09 AM PDT 42.02 5568 + Normal
09/03/2026 10 AM PDT 42.02 5568 0 Normal
09/03/2026 11 AM PDT 42.02 5568 0 Normal
09/03/2026 12 PM PDT 42.02 5568 0 Normal
09/03/2026 01 PM PDT 42.03 5581 + Normal
09/03/2026 02 PM PDT 42.03 5581 0 Normal
09/03/2026 03 PM PDT 42.03 5581 0 Normal
09/03/2026 04 PM PDT 42.03 5581 0 Normal
09/03/2026 05 PM PDT 42.04 5594 + Normal
09/03/2026 06 PM PDT 42.04 5594 0 Normal
09/03/2026 07 PM PDT 42.05 5608 + Normal
09/03/2026 08 PM PDT 42.04 5594 - Normal
09/03/2026 09 PM PDT 42.06 5621 + Normal
09/03/2026 10 PM PDT 42.06 5621 0 Normal
09/03/2026 11 PM PDT 42.05 5608 - Normal
09/04/2026 12 AM PDT 42.06 5621 + Normal
09/04/2026 01 AM PDT 42.07 5635 + Normal
09/04/2026 02 AM PDT 42.06 5621 - Normal
09/04/2026 03 AM PDT 42.08 5648 + Normal
09/04/2026 04 AM PDT 42.09 5662 + Normal
09/04/2026 05 AM PDT 42.09 5662 0 Normal
09/04/2026 06 AM PDT 42.10 5676 + Normal
09/04/2026 07 AM PDT 42.10 5676 0 Normal
09/04/2026 08 AM PDT 42.11 5689 + Normal
09/04/2026 09 AM PDT 42.11 5689 0 Normal
09/04/2026 10 AM PDT 42.12 5703 + Normal
09/04/2026 11 AM PDT 42.12 5703 0 Normal
09/04/2026 12 PM PDT 42.13 5717 + Normal
09/04/2026 01 PM PDT 42.14 5730 + Normal
09/04/2026 02 PM PDT 42.14 5730 0 Normal
09/04/2026 03 PM PDT 42.14 5730 0 Normal
09/04/2026 04 PM PDT 42.14 5730 0 Normal
09/04/2026 05 PM PDT 42.16 5758 + Normal
09/04/2026 06 PM PDT 42.17 5772 + Normal
09/04/2026 07 PM PDT 42.18 5785 + Normal
09/04/2026 08 PM PDT 42.19 5799 + Normal
09/04/2026 09 PM PDT 42.21 5827 + Normal
09/04/2026 10 PM PDT 42.22 5841 + Normal
09/04/2026 11 PM PDT 42.23 5855 + Normal
09/05/2026 12 AM PDT 42.24 5869 + Normal
09/05/2026 01 AM PDT 42.24 5869 0 Normal
09/05/2026 02 AM PDT 42.25 5883 + Normal
09/05/2026 03 AM PDT 42.24 5869 - Normal
09/05/2026 04 AM PDT 42.24 5869 0 Normal
09/05/2026 05 AM PDT 42.25 5883 + Normal
09/05/2026 06 AM PDT 42.25 5883 0 Normal
#
# FORECAST
#
# Date & Time (Local) Stage (Feet) Flow (cfs) Trend Forecast Status
# ---------------------------------------------------------------------------------
09/05/2026 07 AM PDT 42.26 5897 Normal
09/05/2026 08 AM PDT 42.26 5897 0 Normal
09/05/2026 09 AM PDT 42.27 5911 + Normal
09/05/2026 10 AM PDT 42.28 5925 + Normal
09/05/2026 11 AM PDT 42.29 5940 + Normal
09/05/2026 12 PM PDT 42.30 5954 + Normal
09/05/2026 01 PM PDT 42.30 5954 0 Normal
09/05/2026 02 PM PDT 42.31 5968 + Normal
09/05/2026 03 PM PDT 42.32 5982 + Normal
09/05/2026 04 PM PDT 42.33 5996 + Normal
09/05/2026 05 PM PDT 42.34 6011 + Normal
09/05/2026 06 PM PDT 42.34 6011 0 Normal
09/05/2026 07 PM PDT 42.34 6011 0 Normal
09/05/2026 08 PM PDT 42.35 6025 + Normal
09/05/2026 09 PM PDT 42.35 6025 0 Normal
09/05/2026 10 PM PDT 42.35 6025 0 Normal
09/05/2026 11 PM PDT 42.35 6025 0 Normal
09/06/2026 12 AM PDT 42.35 6025 0 Normal
09/06/2026 01 AM PDT 42.35 6025 0 Normal
09/06/2026 02 AM PDT 42.34 6011 - Normal
09/06/2026 03 AM PDT 42.34 6011 0 Normal
09/06/2026 04 AM PDT 42.34 6011 0 Normal
09/06/2026 05 AM PDT 42.33 5996 - Normal
09/06/2026 06 AM PDT 42.32 5982 - Normal
09/06/2026 07 AM PDT 42.31 5968 - Normal
09/06/2026 08 AM PDT 42.30 5954 - Normal
09/06/2026 09 AM PDT 42.29 5940 - Normal
09/06/2026 10 AM PDT 42.28 5925 - Normal
09/06/2026 11 AM PDT 42.26 5897 - Normal
09/06/2026 12 PM PDT 42.25 5883 - Normal
09/06/2026 01 PM PDT 42.23 5855 - Normal
09/06/2026 02 PM PDT 42.21 5827 - Normal
09/06/2026 03 PM PDT 42.19 5799 - Normal
09/06/2026 04 PM PDT 42.17 5772 - Normal
09/06/2026 05 PM PDT 42.16 5758 - Normal
09/06/2026 06 PM PDT 42.14 5730 - Normal
09/06/2026 07 PM PDT 42.12 5703 - Normal
09/06/2026 08 PM PDT 42.10 5676 - Normal
09/06/2026 09 PM PDT 42.09 5662 - Normal
09/06/2026 10 PM PDT 42.07 5635 - Normal
09/06/2026 11 PM PDT 42.06 5621 - Normal
09/07/2026 12 AM PDT 42.04 5594 - Normal
09/07/2026 01 AM PDT 42.03 5581 - Normal
09/07/2026 02 AM PDT 42.02 5568 - Normal
09/07/2026 03 AM PDT 42.01 5554 - Normal
09/07/2026 04 AM PDT 42.00 5541 - Normal
09/07/2026 05 AM PDT 41.98 5521 - Normal
09/07/2026 06 AM PDT 41.97 5511 - Normal
09/07/2026 07 AM PDT 41.96 5501 - Normal
09/07/2026 08 AM PDT 41.95 5492 - Normal
09/07/2026 09 AM PDT 41.94 5482 - Normal
09/07/2026 10 AM PDT 41.93 5472 - Normal
09/07/2026 11 AM PDT 41.92 5462 - Normal
09/07/2026 12 PM PDT 41.91 5452 - Normal
09/07/2026 01 PM PDT 41.91 5452 0 Normal
09/07/2026 02 PM PDT 41.90 5442 - Normal
09/07/2026 03 PM PDT 41.89 5433 - Normal
09/07/2026 04 PM PDT 41.89 5433 0 Normal
09/07/2026 05 PM PDT 41.88 5423 - Normal
09/07/2026 06 PM PDT 41.88 5423 0 Normal
09/07/2026 07 PM PDT 41.87 5413 - Normal
09/07/2026 08 PM PDT 41.87 5413 0 Normal
09/07/2026 09 PM PDT 41.86 5403 - Normal
09/07/2026 10 PM PDT 41.86 5403 0 Normal
09/07/2026 11 PM PDT 41.85 5394 - Normal
09/08/2026 12 AM PDT 41.85 5394 0 Normal
09/08/2026 01 AM PDT 41.85 5394 0 Normal
09/08/2026 02 AM PDT 41.85 5394 0 Normal
09/08/2026 03 AM PDT 41.84 5384 - Normal
09/08/2026 04 AM PDT 41.84 5384 0 Normal
09/08/2026 05 AM PDT 41.84 5384 0 Normal
09/08/2026 06 AM PDT 41.84 5384 0 Normal
09/08/2026 07 AM PDT 41.83 5374 - Normal
09/08/2026 08 AM PDT 41.82 5365 - Normal
09/08/2026 09 AM PDT 41.81 5355 - Normal
09/08/2026 10 AM PDT 41.80 5345 - Normal
09/08/2026 11 AM PDT 41.79 5336 - Normal
09/08/2026 12 PM PDT 41.77 5316 - Normal
09/08/2026 01 PM PDT 41.76 5307 - Normal
09/08/2026 02 PM PDT 41.74 5288 - Normal
09/08/2026 03 PM PDT 41.72 5269 - Normal
09/08/2026 04 PM PDT 41.70 5250 - Normal
09/08/2026 05 PM PDT 41.68 5231 - Normal
09/08/2026 06 PM PDT 41.66 5212 - Normal
09/08/2026 07 PM PDT 41.64 5193 - Normal
09/08/2026 08 PM PDT 41.62 5174 - Normal
09/08/2026 09 PM PDT 41.60 5156 - Normal
09/08/2026 10 PM PDT 41.58 5137 - Normal
09/08/2026 11 PM PDT 41.57 5128 - Normal
09/09/2026 12 AM PDT 41.55 5109 - Normal
09/09/2026 01 AM PDT 41.54 5100 - Normal
09/09/2026 02 AM PDT 41.52 5081 - Normal
09/09/2026 03 AM PDT 41.51 5072 - Normal
09/09/2026 04 AM PDT 41.50 5063 - Normal
09/09/2026 05 AM PDT 41.49 5053 - Normal
09/09/2026 06 AM PDT 41.48 5044 - Normal
09/09/2026 07 AM PDT 41.47 5034 - Normal
09/09/2026 08 AM PDT 41.46 5024 - Normal
09/09/2026 09 AM PDT 41.46 5024 0 Normal
09/09/2026 10 AM PDT 41.45 5014 - Normal
09/09/2026 11 AM PDT 41.44 5005 - Normal
09/09/2026 12 PM PDT 41.44 5005 0 Normal
09/09/2026 01 PM PDT 41.43 4995 - Normal
09/09/2026 02 PM PDT 41.43 4995 0 Normal
09/09/2026 03 PM PDT 41.42 4985 - Normal
09/09/2026 04 PM PDT 41.42 4985 0 Normal
09/09/2026 05 PM PDT 41.41 4976 - Normal
09/09/2026 06 PM PDT 41.41 4976 0 Normal
09/09/2026 07 PM PDT 41.41 4976 0 Normal
09/09/2026 08 PM PDT 41.40 4966 - Normal
09/09/2026 09 PM PDT 41.40 4966 0 Normal
09/09/2026 10 PM PDT 41.40 4966 0 Normal
09/09/2026 11 PM PDT 41.40 4966 0 Normal
09/10/2026 12 AM PDT 41.39 4957 - Normal
09/10/2026 01 AM PDT 41.39 4957 0 Normal
09/10/2026 02 AM PDT 41.39 4957 0 Normal
09/10/2026 03 AM PDT 41.39 4957 0 Normal
09/10/2026 04 AM PDT 41.39 4957 0 Normal
09/10/2026 05 AM PDT 41.39 4957 0 Normal
#
# NOTE 1: Stages are rounded to the nearest hundredth (.01) of a foot.
# NOTE 2: Flows are rounded to the nearest (1) cfs.
# NOTE 3: Trends are determined using hourly change in unrounded stage and flow.
# NOTE 4: Maximum Values are determined using unrounded stage and flow.
|